createdAt,value
2023-01-21T00:01:53.920Z,86.02
2023-01-21T00:02:53.855Z,85.83
2023-01-21T00:03:54.192Z,86.21
2023-01-21T00:04:53.906Z,86.21
2023-01-21T00:05:53.930Z,86.02
2023-01-21T00:06:53.971Z,86.02
2023-01-21T00:07:53.988Z,86.50
2023-01-21T00:08:54.015Z,86.41
2023-01-21T00:09:54.032Z,86.79
2023-01-21T00:10:54.372Z,86.12
2023-01-21T00:11:54.093Z,86.60
2023-01-21T00:12:54.564Z,86.02
2023-01-21T00:13:54.142Z,86.21
2023-01-21T00:14:54.186Z,86.12
2023-01-21T00:15:54.316Z,86.12
2023-01-21T00:16:54.228Z,86.50
2023-01-21T00:17:54.552Z,86.50
2023-01-21T00:18:54.274Z,86.12
2023-01-21T00:19:54.300Z,86.31
2023-01-21T00:20:54.364Z,86.31
2023-01-21T00:21:54.358Z,86.12
2023-01-21T00:22:54.856Z,86.02
2023-01-21T00:24:54.432Z,85.83
2023-01-21T00:25:54.765Z,86.21
2023-01-21T00:26:54.495Z,85.83
2023-01-21T00:27:54.541Z,86.02
2023-01-21T00:29:54.587Z,85.93
2023-01-21T00:30:54.654Z,86.12
2023-01-21T00:31:54.683Z,85.93
2023-01-21T00:33:54.991Z,85.74
2023-01-21T00:34:54.699Z,86.02
2023-01-21T00:35:54.731Z,86.02
2023-01-21T00:36:56.556Z,86.12
2023-01-21T00:37:54.783Z,85.93
2023-01-21T00:38:54.813Z,86.21
2023-01-21T00:39:54.864Z,86.02
2023-01-21T00:40:55.158Z,86.02
2023-01-21T00:41:54.895Z,86.02
2023-01-21T00:42:54.911Z,86.02
2023-01-21T00:43:54.944Z,86.02
2023-01-21T00:44:55.069Z,86.02
2023-01-21T00:45:55.073Z,85.93
2023-01-21T00:46:55.020Z,85.54
2023-01-21T00:47:55.353Z,85.83
2023-01-21T00:48:55.071Z,86.02
2023-01-21T00:49:55.098Z,85.64
2023-01-21T00:50:55.161Z,86.12
2023-01-21T00:51:55.155Z,86.02
2023-01-21T00:53:55.205Z,86.12
2023-01-21T00:54:55.542Z,86.21
2023-01-21T00:55:55.264Z,86.12
2023-01-21T00:56:55.283Z,85.83
2023-01-21T00:57:55.334Z,86.02
2023-01-21T00:58:55.347Z,86.12
2023-01-21T00:59:55.367Z,85.83
2023-01-21T01:00:55.395Z,85.83
2023-01-21T01:01:55.739Z,86.12
2023-01-21T01:02:55.535Z,85.74
2023-01-21T01:03:55.581Z,86.12
2023-01-21T01:04:55.497Z,86.12
2023-01-21T01:05:55.521Z,86.08
2023-01-21T01:06:55.550Z,86.12
2023-01-21T01:07:55.581Z,86.12
2023-01-21T01:08:55.946Z,86.12
2023-01-21T01:09:55.679Z,86.08
2023-01-21T01:10:55.677Z,85.79
2023-01-21T01:11:55.687Z,85.98
2023-01-21T01:12:55.721Z,86.21
2023-01-21T01:13:55.741Z,86.08
2023-01-21T01:14:55.764Z,86.17
2023-01-21T01:15:56.190Z,86.17
2023-01-21T01:16:55.814Z,85.79
2023-01-21T01:17:55.881Z,86.08
2023-01-21T01:18:55.871Z,86.17
2023-01-21T01:19:55.902Z,86.08
2023-01-21T01:20:55.985Z,85.98
2023-01-21T01:21:55.950Z,85.88
2023-01-21T01:22:56.277Z,85.98
2023-01-21T01:23:55.996Z,86.17
2023-01-21T01:24:56.027Z,85.88
2023-01-21T01:25:56.052Z,86.08
2023-01-21T01:26:56.096Z,85.98
2023-01-21T01:27:56.107Z,85.98
2023-01-21T01:28:56.136Z,85.79
2023-01-21T01:29:56.485Z,86.08
2023-01-21T01:30:56.346Z,86.08
2023-01-21T01:31:56.218Z,85.98
2023-01-21T01:32:56.241Z,86.27
2023-01-21T01:33:56.296Z,86.27
2023-01-21T01:35:56.317Z,85.98
2023-01-21T01:36:56.654Z,86.27
2023-01-21T01:37:56.375Z,85.98
2023-01-21T01:38:56.413Z,86.27
2023-01-21T01:40:56.450Z,85.88
2023-01-21T01:41:56.578Z,86.36
2023-01-21T01:42:56.516Z,86.27
2023-01-21T01:43:56.928Z,85.98
2023-01-21T01:44:56.585Z,85.98
2023-01-21T01:45:56.594Z,85.98
2023-01-21T01:46:56.611Z,86.27
2023-01-21T01:48:56.662Z,86.08
2023-01-21T01:49:56.712Z,85.98
2023-01-21T01:50:57.088Z,85.98
2023-01-21T01:51:56.744Z,85.88
2023-01-21T01:52:56.771Z,85.98
2023-01-21T01:53:56.803Z,86.36
2023-01-21T01:54:56.821Z,85.88
2023-01-21T01:55:56.867Z,85.98
2023-01-21T01:56:56.874Z,86.36
2023-01-21T01:57:57.209Z,86.27
2023-01-21T01:58:56.927Z,85.98
2023-01-21T01:59:56.963Z,86.17
2023-01-21T02:00:57.002Z,86.46
2023-01-21T02:01:57.108Z,85.98
2023-01-21T02:02:57.112Z,86.55
2023-01-21T02:03:57.077Z,86.46
2023-01-21T02:04:57.404Z,86.46
2023-01-21T02:05:57.146Z,86.36
2023-01-21T02:06:57.147Z,86.46
2023-01-21T02:07:57.165Z,86.17
2023-01-21T02:08:57.188Z,86.46
2023-01-21T02:09:57.226Z,86.46
2023-01-21T02:10:57.291Z,86.17
2023-01-21T02:11:57.275Z,86.36
2023-01-21T02:12:57.293Z,86.17
2023-01-21T02:13:57.328Z,86.27
2023-01-21T02:14:57.347Z,86.17
2023-01-21T02:15:57.447Z,86.36
2023-01-21T02:16:57.407Z,86.36
2023-01-21T02:17:57.729Z,86.08
2023-01-21T02:18:57.464Z,86.27
2023-01-21T02:19:57.500Z,86.46
2023-01-21T02:20:57.517Z,86.27
2023-01-21T02:21:57.559Z,86.36
2023-01-21T02:22:57.635Z,86.36
2023-01-21T02:23:57.889Z,86.36
2023-01-21T02:24:57.613Z,86.36
2023-01-21T02:25:57.640Z,86.08
2023-01-21T02:26:57.665Z,86.27
2023-01-21T02:28:57.740Z,86.08
2023-01-21T02:29:58.058Z,86.17
2023-01-21T02:30:57.967Z,86.27
2023-01-21T02:31:57.789Z,86.04
2023-01-21T02:33:57.846Z,86.32
2023-01-21T02:34:57.883Z,86.32
2023-01-21T02:35:58.221Z,86.13
2023-01-21T02:36:57.935Z,86.32
2023-01-21T02:37:57.981Z,86.08
2023-01-21T02:38:58.012Z,86.04
2023-01-21T02:39:58.006Z,86.61
2023-01-21T02:40:58.038Z,86.41
2023-01-21T02:41:58.065Z,86.61
2023-01-21T02:42:58.390Z,86.22
2023-01-21T02:43:58.116Z,86.41
2023-01-21T02:44:58.136Z,86.22
2023-01-21T02:45:58.172Z,86.32
2023-01-21T02:46:58.245Z,86.32
2023-01-21T02:47:58.219Z,86.41
2023-01-21T02:48:58.250Z,86.13
2023-01-21T02:49:58.571Z,86.32
2023-01-21T02:50:58.317Z,86.41
2023-01-21T02:51:58.336Z,86.22
2023-01-21T02:52:58.348Z,86.32
2023-01-21T02:53:58.501Z,86.13
2023-01-21T02:54:58.435Z,86.61
2023-01-21T02:55:58.435Z,86.22
2023-01-21T02:56:58.752Z,86.70
2023-01-21T02:57:58.484Z,86.90
2023-01-21T02:58:58.866Z,86.90
2023-01-21T02:59:58.578Z,86.90
2023-01-21T03:00:58.596Z,86.70
2023-01-21T03:01:58.602Z,86.90
2023-01-21T03:02:58.607Z,86.90
2023-01-21T03:03:58.951Z,86.61
2023-01-21T03:04:58.684Z,86.61
2023-01-21T03:05:58.706Z,86.70
2023-01-21T03:06:58.752Z,86.80
2023-01-21T03:07:58.742Z,86.99
2023-01-21T03:08:58.767Z,86.80
2023-01-21T03:09:58.922Z,86.61
2023-01-21T03:10:59.128Z,86.80
2023-01-21T03:11:58.903Z,86.61
2023-01-21T03:12:58.901Z,86.70
2023-01-21T03:13:58.920Z,86.70
2023-01-21T03:14:58.936Z,86.80
2023-01-21T03:15:59.038Z,86.61
2023-01-21T03:16:58.999Z,86.51
2023-01-21T03:17:59.324Z,86.61
2023-01-21T03:18:59.037Z,87.08
2023-01-21T03:19:59.071Z,87.08
2023-01-21T03:20:59.086Z,86.80
2023-01-21T03:21:59.112Z,86.70
2023-01-21T03:23:59.180Z,86.51
2023-01-21T03:24:59.488Z,86.80
2023-01-21T03:25:59.240Z,86.51
2023-01-21T03:26:59.241Z,87.18
2023-01-21T03:27:59.265Z,86.90
2023-01-21T03:28:59.295Z,86.61
2023-01-21T03:29:59.327Z,86.61
2023-01-21T03:31:59.383Z,87.08
2023-01-21T03:32:59.704Z,86.80
2023-01-21T03:33:59.425Z,87.08
2023-01-21T03:34:59.445Z,86.70
2023-01-21T03:35:59.475Z,86.51
2023-01-21T03:36:59.504Z,86.61
2023-01-21T03:37:59.524Z,86.99
2023-01-21T03:38:59.553Z,86.61
2023-01-21T03:41:59.953Z,86.80
2023-01-21T03:42:59.660Z,86.61
2023-01-21T03:43:59.685Z,86.80
2023-01-21T03:44:59.715Z,86.70
2023-01-21T03:45:59.869Z,86.80
2023-01-21T03:46:59.779Z,86.90
2023-01-21T03:47:59.810Z,86.99
2023-01-21T03:50:00.164Z,86.61
2023-01-21T03:50:59.928Z,86.61
2023-01-21T03:51:59.897Z,86.70
2023-01-21T03:52:59.922Z,86.70
2023-01-21T03:53:59.957Z,87.08
2023-01-21T03:54:59.976Z,86.90
2023-01-21T03:56:00.305Z,86.90
2023-01-21T03:57:00.035Z,86.51
2023-01-21T03:58:00.137Z,86.80
2023-01-21T03:59:00.094Z,86.76
2023-01-21T04:00:00.128Z,86.80
2023-01-21T04:01:00.169Z,86.61
2023-01-21T04:02:00.230Z,86.51
2023-01-21T04:03:00.475Z,86.70
2023-01-21T04:04:00.239Z,86.70
2023-01-21T04:05:00.239Z,87.27
2023-01-21T04:06:00.263Z,87.18
2023-01-21T04:07:00.285Z,86.94
2023-01-21T04:08:00.310Z,86.99
2023-01-21T04:09:00.335Z,86.57
2023-01-21T04:10:00.760Z,86.90
2023-01-21T04:11:00.399Z,86.94
2023-01-21T04:12:00.421Z,87.27
2023-01-21T04:13:00.437Z,86.47
2023-01-21T04:14:00.487Z,86.76
2023-01-21T04:15:00.506Z,87.23
2023-01-21T04:16:00.650Z,87.04
2023-01-21T04:17:00.840Z,87.23
2023-01-21T04:18:00.577Z,86.70
2023-01-21T04:19:00.589Z,86.66
2023-01-21T04:20:00.628Z,87.27
2023-01-21T04:21:00.646Z,87.33
2023-01-21T04:22:00.675Z,86.94
2023-01-21T04:23:00.704Z,86.99
2023-01-21T04:24:01.032Z,87.14
2023-01-21T04:25:00.762Z,87.33
2023-01-21T04:26:01.552Z,87.04
2023-01-21T04:27:00.802Z,87.08
2023-01-21T04:28:00.955Z,87.04
2023-01-21T04:29:00.858Z,87.23
2023-01-21T04:30:00.913Z,87.33
2023-01-21T04:31:01.233Z,87.14
2023-01-21T04:32:00.982Z,86.85
2023-01-21T04:33:00.957Z,87.43
2023-01-21T04:34:00.998Z,87.43
2023-01-21T04:35:01.014Z,87.33
2023-01-21T04:36:01.051Z,87.14
2023-01-21T04:37:01.073Z,87.04
2023-01-21T04:38:01.396Z,87.23
2023-01-21T04:39:01.118Z,86.99
2023-01-21T04:40:01.240Z,86.85
2023-01-21T04:41:01.270Z,86.85
2023-01-21T04:42:01.196Z,87.04
2023-01-21T04:43:01.231Z,86.85
2023-01-21T04:45:01.280Z,87.43
2023-01-21T04:46:01.701Z,87.04
2023-01-21T04:47:01.339Z,87.14
2023-01-21T04:48:01.347Z,87.43
2023-01-21T04:49:01.396Z,87.33
2023-01-21T04:50:01.401Z,86.94
2023-01-21T04:51:01.451Z,87.14
2023-01-21T04:52:01.458Z,87.04
2023-01-21T04:53:01.784Z,87.23
2023-01-21T04:54:01.534Z,87.14
2023-01-21T04:55:01.555Z,87.14
2023-01-21T04:56:01.561Z,87.33
2023-01-21T04:57:01.610Z,87.33
2023-01-21T04:58:01.616Z,87.62
2023-01-21T04:59:01.636Z,87.81
2023-01-21T05:00:02.964Z,87.04
2023-01-21T05:01:01.746Z,87.04
2023-01-21T05:02:01.759Z,87.23
2023-01-21T05:03:01.740Z,87.43
2023-01-21T05:04:01.821Z,87.71
2023-01-21T05:05:01.791Z,87.04
2023-01-21T05:06:01.816Z,87.62
2023-01-21T05:07:02.143Z,87.62
2023-01-21T05:08:01.867Z,87.52
2023-01-21T05:09:01.905Z,87.71
2023-01-21T05:10:01.929Z,87.90
2023-01-21T05:11:01.953Z,87.62
2023-01-21T05:12:01.968Z,87.52
2023-01-21T05:13:02.005Z,87.43
2023-01-21T05:14:02.340Z,87.14
2023-01-21T05:15:02.047Z,87.52
2023-01-21T05:16:02.120Z,87.33
2023-01-21T05:17:02.267Z,87.43
2023-01-21T05:18:02.160Z,87.43
2023-01-21T05:19:02.173Z,87.52
2023-01-21T05:20:02.396Z,87.43
2023-01-21T05:21:02.513Z,87.43
2023-01-21T05:22:02.243Z,87.33
2023-01-21T05:23:02.257Z,87.43
2023-01-21T05:25:02.323Z,87.43
2023-01-21T05:27:02.378Z,87.23
2023-01-21T05:28:02.691Z,87.43
2023-01-21T05:29:02.415Z,87.33
2023-01-21T05:30:02.469Z,87.52
2023-01-21T05:31:02.628Z,87.43
2023-01-21T05:32:02.592Z,87.43
2023-01-21T05:34:02.568Z,87.52
2023-01-21T05:35:02.881Z,87.04
2023-01-21T05:36:02.596Z,87.04
2023-01-21T05:37:02.621Z,86.76
2023-01-21T05:38:02.661Z,86.76
2023-01-21T05:39:02.675Z,86.47
2023-01-21T05:40:02.723Z,86.57
2023-01-21T05:42:02.752Z,86.76
2023-01-21T05:43:03.085Z,86.08
2023-01-21T05:44:02.811Z,86.37
2023-01-21T05:45:02.879Z,86.18
2023-01-21T05:46:03.006Z,85.99
2023-01-21T05:47:02.914Z,86.18
2023-01-21T05:48:02.906Z,86.28
2023-01-21T05:49:02.939Z,86.18
2023-01-21T05:50:03.290Z,86.37
2023-01-21T05:51:02.997Z,86.47
2023-01-21T05:52:03.014Z,86.57
2023-01-21T05:53:03.105Z,86.28
2023-01-21T05:54:03.060Z,86.18
2023-01-21T05:55:03.231Z,86.37
2023-01-21T05:56:03.117Z,86.28
2023-01-21T05:57:03.441Z,86.37
2023-01-21T05:58:03.162Z,86.28
2023-01-21T05:59:03.189Z,86.08
2023-01-21T06:00:03.220Z,86.37
2023-01-21T06:01:03.265Z,86.66
2023-01-21T06:02:03.290Z,86.47
2023-01-21T06:03:03.293Z,86.47
2023-01-21T06:04:03.619Z,85.99
2023-01-21T06:05:03.352Z,85.89
2023-01-21T06:06:03.400Z,86.57
2023-01-21T06:07:03.396Z,86.57
2023-01-21T06:08:03.425Z,86.28
2023-01-21T06:09:03.474Z,86.47
2023-01-21T06:10:03.477Z,86.57
2023-01-21T06:11:03.813Z,86.66
2023-01-21T06:12:03.548Z,86.28
2023-01-21T06:13:03.554Z,86.18
2023-01-21T06:14:03.579Z,86.37
2023-01-21T06:16:03.690Z,86.47
2023-01-21T06:17:03.680Z,86.08
2023-01-21T06:18:03.981Z,86.18
2023-01-21T06:20:03.836Z,86.28
2023-01-21T06:21:03.774Z,86.47
2023-01-21T06:22:03.805Z,86.08
2023-01-21T06:23:03.814Z,86.08
2023-01-21T06:24:03.841Z,86.28
2023-01-21T06:25:04.164Z,86.37
2023-01-21T06:26:03.898Z,86.28
2023-01-21T06:27:03.920Z,86.37
2023-01-21T06:28:03.940Z,86.08
2023-01-21T06:29:03.966Z,86.47
2023-01-21T06:30:04.000Z,86.47
2023-01-21T06:31:04.469Z,86.18
2023-01-21T06:32:04.206Z,85.99
2023-01-21T06:33:04.105Z,86.47
2023-01-21T06:34:04.095Z,86.47
2023-01-21T06:35:04.135Z,86.57
2023-01-21T06:36:04.388Z,86.37
2023-01-21T06:37:04.660Z,86.28
2023-01-21T06:38:04.457Z,86.28
2023-01-21T06:39:04.460Z,86.47
2023-01-21T06:40:04.541Z,85.89
2023-01-21T06:41:04.335Z,86.47
2023-01-21T06:42:04.345Z,85.89
2023-01-21T06:43:04.640Z,85.99
2023-01-21T06:44:04.363Z,86.47
2023-01-21T06:45:04.418Z,86.57
2023-01-21T06:46:04.487Z,86.47
2023-01-21T06:47:04.509Z,86.37
2023-01-21T06:48:04.539Z,86.47
2023-01-21T06:49:04.481Z,86.47
2023-01-21T06:50:04.812Z,86.47
2023-01-21T06:51:04.547Z,85.89
2023-01-21T06:52:04.557Z,85.85
2023-01-21T06:53:04.581Z,86.57
2023-01-21T06:54:04.735Z,86.37
2023-01-21T06:55:04.636Z,86.47
2023-01-21T06:56:04.668Z,86.33
2023-01-21T06:57:04.994Z,86.43
2023-01-21T06:58:04.716Z,86.33
2023-01-21T06:59:04.739Z,85.89
2023-01-21T07:00:04.775Z,85.89
2023-01-21T07:01:04.791Z,86.14
2023-01-21T07:02:04.813Z,86.33
2023-01-21T07:03:04.881Z,86.18
2023-01-21T07:04:05.193Z,86.08
2023-01-21T07:05:04.946Z,86.33
2023-01-21T07:06:04.916Z,85.94
2023-01-21T07:07:04.943Z,86.28
2023-01-21T07:08:04.967Z,86.71
2023-01-21T07:09:05.000Z,86.80
2023-01-21T07:10:05.040Z,86.94
2023-01-21T07:11:05.361Z,86.85
2023-01-21T07:12:05.073Z,86.33
2023-01-21T07:13:05.115Z,86.04
2023-01-21T07:14:05.123Z,85.99
2023-01-21T07:15:05.153Z,86.14
2023-01-21T07:16:06.918Z,86.14
2023-01-21T07:17:05.207Z,86.14
2023-01-21T07:18:05.624Z,86.18
2023-01-21T07:19:05.261Z,86.28
2023-01-21T07:20:05.295Z,86.33
2023-01-21T07:22:05.496Z,86.04
2023-01-21T07:23:05.360Z,86.23
2023-01-21T07:24:05.410Z,86.14
2023-01-21T07:25:05.714Z,86.18
2023-01-21T07:26:05.457Z,86.23
2023-01-21T07:27:05.736Z,86.47
2023-01-21T07:28:05.486Z,86.08
2023-01-21T07:29:05.639Z,86.23
2023-01-21T07:30:05.662Z,86.43
2023-01-21T07:31:05.660Z,86.52
2023-01-21T07:32:05.959Z,86.52
2023-01-21T07:33:05.620Z,86.43
2023-01-21T07:34:05.651Z,86.43
2023-01-21T07:35:05.663Z,86.43
2023-01-21T07:36:05.699Z,86.43
2023-01-21T07:37:05.732Z,86.43
2023-01-21T07:38:05.740Z,86.33
2023-01-21T07:39:06.081Z,86.23
2023-01-21T07:40:05.797Z,86.23
2023-01-21T07:41:05.816Z,86.04
2023-01-21T07:42:05.862Z,86.04
2023-01-21T07:43:05.878Z,86.14
2023-01-21T07:44:05.909Z,86.04
2023-01-21T07:45:05.923Z,86.14
2023-01-21T07:46:06.248Z,86.33
2023-01-21T07:47:05.975Z,86.52
2023-01-21T07:48:06.003Z,86.08
2023-01-21T07:49:06.039Z,86.14
2023-01-21T07:50:06.055Z,86.18
2023-01-21T07:51:06.264Z,86.23
2023-01-21T07:52:06.103Z,86.28
2023-01-21T07:53:06.463Z,86.04
2023-01-21T07:54:06.149Z,86.14
2023-01-21T07:55:06.183Z,85.99
2023-01-21T07:56:06.225Z,86.28
2023-01-21T07:57:06.303Z,86.08
2023-01-21T07:58:06.279Z,86.23
2023-01-21T08:00:06.612Z,86.14
2023-01-21T08:01:06.444Z,86.08
2023-01-21T08:02:06.528Z,86.76
2023-01-21T08:03:06.385Z,86.61
2023-01-21T08:04:06.414Z,86.08
2023-01-21T08:05:06.451Z,86.37
2023-01-21T08:06:06.466Z,86.66
2023-01-21T08:07:06.793Z,86.47
2023-01-21T08:08:06.509Z,86.08
2023-01-21T08:09:06.542Z,86.37
2023-01-21T08:10:06.561Z,85.99
2023-01-21T08:11:06.587Z,86.37
2023-01-21T08:12:06.667Z,85.99
2023-01-21T08:13:06.640Z,86.08
2023-01-21T08:14:06.999Z,86.28
2023-01-21T08:15:06.694Z,86.28
2023-01-21T08:16:07.002Z,86.47
2023-01-21T08:17:06.751Z,86.57
2023-01-21T08:18:06.776Z,86.47
2023-01-21T08:19:06.797Z,86.57
2023-01-21T08:20:06.825Z,85.89
2023-01-21T08:21:07.154Z,86.18
2023-01-21T08:22:06.880Z,85.80
2023-01-21T08:23:06.903Z,86.08
2023-01-21T08:24:06.933Z,85.89
2023-01-21T08:25:06.952Z,85.89
2023-01-21T08:26:06.982Z,86.08
2023-01-21T08:27:07.051Z,85.80
2023-01-21T08:28:07.348Z,86.08
2023-01-21T08:29:07.075Z,85.80
2023-01-21T08:30:07.162Z,85.80
2023-01-21T08:31:07.300Z,85.71
2023-01-21T08:32:07.130Z,85.71
2023-01-21T08:34:07.179Z,85.99
2023-01-21T08:35:07.465Z,85.99
2023-01-21T08:36:07.246Z,85.89
2023-01-21T08:37:07.302Z,85.71
2023-01-21T08:39:07.320Z,85.51
2023-01-21T08:40:07.437Z,85.61
2023-01-21T08:41:07.661Z,85.61
2023-01-21T08:42:07.398Z,85.61
2023-01-21T08:43:07.421Z,85.61
2023-01-21T08:44:07.442Z,85.61
2023-01-21T08:45:07.466Z,85.41
2023-01-21T08:46:07.625Z,85.13
2023-01-21T08:47:07.827Z,85.22
2023-01-21T08:48:07.553Z,85.51
2023-01-21T08:49:07.568Z,85.32
2023-01-21T08:50:07.620Z,85.32
2023-01-21T08:51:07.983Z,85.22
2023-01-21T08:52:07.649Z,85.71
2023-01-21T08:53:07.972Z,85.51
2023-01-21T08:54:07.701Z,85.71
2023-01-21T08:55:07.733Z,85.80
2023-01-21T08:56:07.762Z,85.61
2023-01-21T08:57:07.856Z,85.61
2023-01-21T08:58:07.810Z,85.61
2023-01-21T08:59:07.832Z,85.80
2023-01-21T09:00:08.153Z,85.71
2023-01-21T09:01:07.943Z,85.13
2023-01-21T09:02:07.980Z,84.75
2023-01-21T09:03:07.937Z,85.22
2023-01-21T09:04:07.968Z,85.03
2023-01-21T09:05:07.999Z,85.03
2023-01-21T09:06:08.016Z,84.84
2023-01-21T09:07:08.338Z,85.03
2023-01-21T09:08:08.059Z,85.03
2023-01-21T09:09:08.092Z,84.75
2023-01-21T09:10:08.135Z,84.65
2023-01-21T09:11:08.190Z,84.84
2023-01-21T09:12:08.171Z,84.75
2023-01-21T09:13:08.292Z,84.46
2023-01-21T09:14:08.582Z,84.55
2023-01-21T09:15:08.272Z,84.46
2023-01-21T09:16:12.193Z,84.46
2023-01-21T09:17:08.294Z,84.55
2023-01-21T09:18:08.344Z,84.65
2023-01-21T09:20:08.374Z,84.75
2023-01-21T09:21:08.702Z,84.84
2023-01-21T09:22:08.441Z,84.75
2023-01-21T09:23:08.458Z,84.94
2023-01-21T09:24:08.482Z,84.94
2023-01-21T09:25:08.500Z,84.94
2023-01-21T09:26:08.526Z,84.84
2023-01-21T09:27:08.561Z,84.94
2023-01-21T09:28:08.884Z,84.75
2023-01-21T09:30:08.634Z,85.13
2023-01-21T09:31:08.662Z,85.51
2023-01-21T09:32:08.680Z,85.41
2023-01-21T09:33:08.710Z,84.84
2023-01-21T09:34:08.755Z,85.22
2023-01-21T09:35:09.142Z,85.03
2023-01-21T09:36:08.840Z,84.65
2023-01-21T09:37:08.820Z,84.94
2023-01-21T09:38:08.838Z,84.84
2023-01-21T09:39:08.870Z,84.75
2023-01-21T09:40:08.891Z,84.94
2023-01-21T09:41:08.934Z,84.75
2023-01-21T09:42:09.239Z,84.84
2023-01-21T09:43:08.968Z,84.84
2023-01-21T09:44:08.992Z,85.03
2023-01-21T09:45:09.023Z,85.08
2023-01-21T09:46:09.122Z,85.08
2023-01-21T09:48:09.398Z,84.84
2023-01-21T09:49:09.143Z,84.94
2023-01-21T09:50:09.170Z,84.98
2023-01-21T09:51:09.205Z,85.08
2023-01-21T09:52:09.199Z,84.75
2023-01-21T09:53:09.227Z,85.08
2023-01-21T09:54:09.258Z,84.69
2023-01-21T09:55:09.646Z,84.84
2023-01-21T09:56:09.311Z,84.84
2023-01-21T09:57:09.384Z,85.03
2023-01-21T09:58:09.383Z,84.75
2023-01-21T09:59:09.386Z,84.79
2023-01-21T10:00:09.554Z,85.08
2023-01-21T10:01:09.807Z,84.88
2023-01-21T10:02:09.463Z,84.98
2023-01-21T10:03:09.542Z,84.79
2023-01-21T10:05:09.558Z,84.79
2023-01-21T10:06:09.585Z,84.31
2023-01-21T10:07:09.887Z,85.08
2023-01-21T10:08:09.639Z,84.98
2023-01-21T10:09:09.649Z,84.22
2023-01-21T10:10:09.675Z,84.50
2023-01-21T10:11:09.708Z,84.50
2023-01-21T10:12:09.723Z,84.69
2023-01-21T10:13:10.052Z,84.59
2023-01-21T10:14:09.777Z,84.69
2023-01-21T10:15:09.825Z,84.59
2023-01-21T10:16:09.826Z,84.69
2023-01-21T10:17:09.855Z,84.41
2023-01-21T10:18:09.875Z,84.12
2023-01-21T10:19:09.906Z,84.50
2023-01-21T10:20:10.352Z,84.50
2023-01-21T10:21:09.954Z,84.59
2023-01-21T10:22:10.024Z,84.31
2023-01-21T10:23:10.040Z,84.50
2023-01-21T10:24:10.041Z,84.31
2023-01-21T10:25:10.060Z,84.22
2023-01-21T10:26:10.200Z,84.50
2023-01-21T10:27:10.417Z,84.59
2023-01-21T10:28:10.158Z,84.59
2023-01-21T10:29:10.224Z,84.41
2023-01-21T10:30:10.302Z,84.41
2023-01-21T10:31:10.356Z,84.50
2023-01-21T10:32:10.266Z,84.79
2023-01-21T10:33:10.276Z,84.50
2023-01-21T10:34:10.597Z,84.79
2023-01-21T10:35:10.383Z,84.69
2023-01-21T10:36:10.354Z,84.88
2023-01-21T10:37:10.403Z,84.59
2023-01-21T10:38:10.422Z,84.50
2023-01-21T10:39:10.507Z,84.69
2023-01-21T10:40:10.452Z,84.59
2023-01-21T10:41:10.789Z,84.59
2023-01-21T10:42:10.505Z,83.73
2023-01-21T10:43:10.560Z,84.22
2023-01-21T10:44:10.561Z,84.12
2023-01-21T10:45:10.599Z,84.22
2023-01-21T10:46:10.724Z,84.02
2023-01-21T10:47:10.742Z,84.02
2023-01-21T10:49:11.007Z,84.12
2023-01-21T10:50:10.712Z,83.83
2023-01-21T10:51:10.772Z,84.12
2023-01-21T10:52:10.771Z,84.12
2023-01-21T10:53:10.804Z,84.02
2023-01-21T10:54:10.850Z,83.83
2023-01-21T10:55:10.856Z,84.02
2023-01-21T10:56:11.176Z,84.12
2023-01-21T10:57:10.911Z,84.12
2023-01-21T10:58:10.931Z,83.93
2023-01-21T10:59:10.958Z,83.83
2023-01-21T11:00:10.980Z,83.73
2023-01-21T11:01:11.120Z,83.73
2023-01-21T11:02:11.100Z,84.02
2023-01-21T11:04:11.394Z,83.93
2023-01-21T11:05:11.108Z,84.12
2023-01-21T11:06:11.134Z,83.64
2023-01-21T11:07:11.172Z,84.22
2023-01-21T11:08:11.194Z,84.22
2023-01-21T11:09:11.236Z,84.12
2023-01-21T11:10:11.427Z,84.12
2023-01-21T11:12:11.601Z,83.83
2023-01-21T11:13:11.320Z,83.93
2023-01-21T11:14:11.350Z,84.12
2023-01-21T11:15:11.430Z,83.93
2023-01-21T11:16:11.487Z,83.45
2023-01-21T11:17:11.427Z,83.93
2023-01-21T11:18:11.809Z,83.93
2023-01-21T11:19:11.476Z,83.54
2023-01-21T11:20:11.570Z,83.73
2023-01-21T11:21:11.528Z,83.64
2023-01-21T11:22:11.554Z,83.54
2023-01-21T11:23:11.598Z,83.64
2023-01-21T11:24:11.605Z,83.73
2023-01-21T11:25:11.933Z,83.64
2023-01-21T11:26:11.835Z,83.73
2023-01-21T11:27:11.810Z,83.73
2023-01-21T11:28:11.883Z,83.73
2023-01-21T11:29:11.852Z,83.64
2023-01-21T11:30:31.868Z,83.73
2023-01-21T11:31:12.832Z,83.64
2023-01-21T11:32:12.073Z,83.93
2023-01-21T11:33:11.952Z,84.02
2023-01-21T11:34:11.935Z,84.12
2023-01-21T11:35:11.901Z,84.12
2023-01-21T11:36:11.919Z,84.12
2023-01-21T11:37:11.951Z,83.93
2023-01-21T11:38:12.276Z,84.41
2023-01-21T11:39:12.004Z,83.93
2023-01-21T11:40:12.098Z,83.93
2023-01-21T11:41:12.137Z,84.02
2023-01-21T11:42:12.161Z,84.12
2023-01-21T11:43:12.160Z,84.12
2023-01-21T11:44:12.290Z,84.12
2023-01-21T11:45:12.514Z,84.12
2023-01-21T11:46:12.255Z,83.83
2023-01-21T11:47:12.408Z,83.93
2023-01-21T11:48:12.329Z,84.12
2023-01-21T11:49:12.284Z,84.12
2023-01-21T11:50:12.311Z,83.73
2023-01-21T11:51:12.391Z,83.73
2023-01-21T11:52:12.872Z,84.02
2023-01-21T11:53:12.409Z,83.93
2023-01-21T11:54:12.411Z,83.83
2023-01-21T11:55:12.452Z,84.22
2023-01-21T11:56:12.489Z,84.02
2023-01-21T11:57:12.836Z,83.93
2023-01-21T11:58:12.642Z,83.83
2023-01-21T11:59:12.882Z,83.83
2023-01-21T12:00:12.649Z,84.12
2023-01-21T12:01:12.589Z,83.93
2023-01-21T12:02:12.822Z,84.22
2023-01-21T12:03:12.844Z,83.93
2023-01-21T12:05:12.837Z,84.12
2023-01-21T12:06:13.171Z,83.93
2023-01-21T12:07:12.889Z,83.73
2023-01-21T12:08:12.931Z,83.54
2023-01-21T12:09:12.903Z,83.64
2023-01-21T12:10:13.167Z,83.26
2023-01-21T12:11:12.957Z,83.73
2023-01-21T12:12:12.867Z,83.64
2023-01-21T12:13:13.208Z,83.93
2023-01-21T12:14:13.009Z,83.54
2023-01-21T12:15:12.955Z,83.64
2023-01-21T12:16:13.094Z,83.93
2023-01-21T12:17:13.001Z,83.73
2023-01-21T12:18:13.086Z,83.54
2023-01-21T12:19:13.083Z,83.97
2023-01-21T12:20:13.397Z,83.59
2023-01-21T12:21:13.113Z,83.54
2023-01-21T12:22:13.134Z,83.64
2023-01-21T12:23:13.165Z,83.73
2023-01-21T12:24:13.284Z,83.59
2023-01-21T12:25:13.210Z,83.36
2023-01-21T12:27:13.571Z,83.64
2023-01-21T12:28:13.300Z,83.45
2023-01-21T12:29:13.401Z,83.64
2023-01-21T12:30:13.417Z,83.64
2023-01-21T12:31:13.497Z,83.45
2023-01-21T12:32:13.402Z,83.73
2023-01-21T12:33:13.846Z,83.78
2023-01-21T12:34:13.461Z,83.45
2023-01-21T12:35:13.481Z,83.73
2023-01-21T12:36:13.537Z,83.39
2023-01-21T12:37:13.575Z,82.97
2023-01-21T12:38:13.553Z,83.73
2023-01-21T12:39:13.895Z,83.16
2023-01-21T12:40:13.640Z,83.11
2023-01-21T12:41:13.648Z,83.16
2023-01-21T12:42:13.665Z,83.45
2023-01-21T12:43:13.689Z,83.26
2023-01-21T12:44:13.767Z,83.16
2023-01-21T12:45:14.240Z,83.36
2023-01-21T12:46:13.838Z,83.26
2023-01-21T12:48:13.949Z,83.36
2023-01-21T12:49:13.872Z,82.97
2023-01-21T12:50:13.884Z,83.36
2023-01-21T12:51:13.945Z,83.45
2023-01-21T12:52:14.233Z,83.64
2023-01-21T12:53:13.967Z,83.16
2023-01-21T12:54:13.980Z,83.06
2023-01-21T12:55:14.028Z,83.20
2023-01-21T12:56:14.134Z,83.30
2023-01-21T12:57:14.192Z,83.64
2023-01-21T12:58:14.111Z,83.54
2023-01-21T12:59:14.628Z,83.73
2023-01-21T13:00:14.171Z,82.97
2023-01-21T13:02:14.369Z,83.36
2023-01-21T13:03:14.233Z,83.73
2023-01-21T13:04:14.252Z,83.78
2023-01-21T13:05:14.479Z,83.36
2023-01-21T13:06:14.605Z,83.93
2023-01-21T13:07:14.326Z,84.02
2023-01-21T13:08:14.431Z,84.16
2023-01-21T13:09:14.513Z,83.93
2023-01-21T13:10:14.559Z,83.73
2023-01-21T13:11:14.457Z,83.93
2023-01-21T13:12:14.459Z,83.83
2023-01-21T13:13:14.867Z,83.73
2023-01-21T13:14:14.518Z,83.73
2023-01-21T13:15:14.541Z,83.87
2023-01-21T13:16:14.615Z,83.97
2023-01-21T13:18:14.659Z,83.83
2023-01-21T13:19:14.646Z,83.93
2023-01-21T13:20:15.214Z,84.12
2023-01-21T13:21:14.739Z,84.02
2023-01-21T13:22:14.851Z,83.93
2023-01-21T13:23:14.752Z,83.54
2023-01-21T13:24:14.793Z,83.73
2023-01-21T13:25:14.833Z,83.68
2023-01-21T13:26:14.861Z,84.16
2023-01-21T13:27:15.386Z,83.39
2023-01-21T13:28:14.898Z,83.36
2023-01-21T13:29:14.917Z,83.39
2023-01-21T13:30:15.162Z,83.64
2023-01-21T13:31:15.110Z,82.87